Vienna, North Carolina
Current Conditions -  °F | °C
As of 1:54 PM on Friday 21 Nov 2014 (Local Time) from KINT Reporting Station
Clear Clear  
Wind Chill: 45°   Ceiling: Unl
Heat Index: 47°   Visibility: 10mi
Dew Point:   Wind: 5mph
Humidity: 19%   Direction: 360°N
Pressure: 30.42"   Gusts: NA
Location:  36.1722°N, 80.3739°W
Report Text: KINT 211854Z 36004KT 10SM CLR 08/M14 A3042 RMK AO2 SLP302 T00831144
Loading
Personal Weather Stations






























Interactive Weather Map New forecast layout! Learn more

10-Day Weather Forecast

Advertisements
Track Severe Weather on mobile